Time;durP1;ratioP1;P1;durP2;ratioP2;P2;SDS_P1;SDS_P2;PMS_P1;PMS_P2;Temp;Humidity;BMP_temperature;BMP_pressure;BME280_temperature;BME280_humidity;BME280_pressure;Samples;Min_cycle;Max_cycle;Signal;HPM_P1;HPM_P2
2022/09/07 00:00:53;;;;;;;13.85;6.38;;;20.60;91.70;;;;;;5138348;27;20453;-47
2022/09/07 00:03:20;;;;;;;11.10;6.43;;;20.70;91.10;;;;;;5148703;27;20103;-43
2022/09/07 00:05:47;;;;;;;8.75;6.00;;;20.60;91.10;;;;;;5135825;27;20071;-47
2022/09/07 00:08:14;;;;;;;11.18;6.53;;;20.60;90.90;;;;;;5135887;27;20533;-45
2022/09/07 00:10:41;;;;;;;10.80;6.35;;;20.70;91.10;;;;;;5155359;27;20474;-49
2022/09/07 00:13:09;;;;;;;9.77;6.88;;;20.60;91.20;;;;;;5143264;27;20078;-45
2022/09/07 00:15:40;;;;;;;14.60;7.15;;;20.60;91.30;;;;;;5134303;27;20035;-50
2022/09/07 00:18:06;;;;;;;10.13;5.75;;;20.60;91.30;;;;;;5140561;27;20042;-49
2022/09/07 00:20:33;;;;;;;9.07;6.88;;;20.60;91.10;;;;;;5157363;27;20201;-45
2022/09/07 00:23:00;;;;;;;7.55;6.07;;;20.60;91.30;;;;;;5152013;27;20043;-35
2022/09/07 00:25:26;;;;;;;10.73;7.40;;;20.50;91.20;;;;;;5148007;27;20119;-46
2022/09/07 00:27:53;;;;;;;8.57;6.65;;;20.50;91.80;;;;;;5134158;27;20127;-50
2022/09/07 00:30:20;;;;;;;17.25;6.75;;;20.50;91.60;;;;;;5138324;27;20081;-48
2022/09/07 00:32:48;;;;;;;8.00;5.70;;;20.40;91.40;;;;;;5137771;27;20133;-49
2022/09/07 00:35:15;;;;;;;12.73;7.30;;;20.50;91.40;;;;;;5118957;27;20083;-50
2022/09/07 00:37:42;;;;;;;10.82;6.32;;;20.50;91.40;;;;;;5134682;27;20075;-45
2022/09/07 00:40:09;;;;;;;11.25;7.55;;;20.50;91.50;;;;;;5133654;27;20075;-44
2022/09/07 00:42:36;;;;;;;13.88;8.63;;;20.50;91.90;;;;;;5149762;27;20039;-48
2022/09/07 00:45:07;;;;;;;15.32;7.65;;;20.40;92.60;;;;;;5126775;27;20548;-49
2022/09/07 00:47:37;;;;;;;10.93;8.32;;;20.30;93.00;;;;;;5131275;27;20085;-47
2022/09/07 00:50:08;;;;;;;14.10;8.70;;;20.30;93.40;;;;;;5140754;27;20122;-51
2022/09/07 00:52:35;;;;;;;15.10;10.02;;;20.20;93.90;;;;;;5113607;27;20095;-54
2022/09/07 00:55:02;;;;;;;16.63;9.85;;;20.10;95.20;;;;;;5124362;27;20123;-57
2022/09/07 00:57:29;;;;;;;11.68;9.55;;;19.90;95.50;;;;;;5143346;27;20042;-58
2022/09/07 00:59:56;;;;;;;13.30;8.60;;;19.80;95.70;;;;;;5130593;27;20099;-57
2022/09/07 01:02:23;;;;;;;14.35;9.73;;;19.90;95.80;;;;;;5150787;27;20038;-64
2022/09/07 01:04:51;;;;;;;15.95;11.00;;;19.80;96.20;;;;;;5121147;27;20081;-55
2022/09/07 01:07:19;;;;;;;24.27;11.38;;;19.70;96.80;;;;;;5134142;27;20042;-52
2022/09/07 01:09:46;;;;;;;17.80;11.68;;;19.70;96.90;;;;;;5113363;27;20445;-47
2022/09/07 01:12:13;;;;;;;16.52;10.73;;;19.70;97.10;;;;;;5117026;27;20129;-48
2022/09/07 01:14:46;;;;;;;14.05;10.23;;;19.70;97.10;;;;;;5125248;27;20043;-49
2022/09/07 01:17:17;;;;;;;17.60;12.18;;;19.70;97.10;;;;;;5137488;27;20063;-50
2022/09/07 01:20:06;;;;;;;15.15;12.50;;;19.60;97.70;;;;;;5126956;27;20130;-51
2022/09/07 01:22:50;;;;;;;16.65;11.07;;;19.70;98.10;;;;;;5106826;27;20078;-42
2022/09/07 01:25:21;;;;;;;15.73;12.93;;;19.60;98.10;;;;;;5131205;27;20130;-46
2022/09/07 01:27:52;;;;;;;;;;;19.60;98.60;;;;;;5121150;27;20078;-49
2022/09/07 01:30:20;;;;;;;13.73;9.95;;;19.50;98.20;;;;;;5127760;27;20003;-46
2022/09/07 01:32:58;;;;;;;17.60;12.23;;;19.40;98.30;;;;;;5135732;27;20043;-48
2022/09/07 01:35:29;;;;;;;13.77;10.43;;;19.50;98.70;;;;;;5124978;27;20086;-51
2022/09/07 01:37:58;;;;;;;15.35;12.18;;;19.50;98.70;;;;;;5100167;28;20541;-52
2022/09/07 01:40:29;;;;;;;15.93;12.13;;;19.50;98.90;;;;;;5132775;27;20071;-47
2022/09/07 01:43:00;;;;;;;19.77;13.65;;;19.50;99.10;;;;;;5125527;27;20051;-47
2022/09/07 01:45:28;;;;;;;14.90;10.98;;;19.50;99.30;;;;;;5114987;28;20043;-47
2022/09/07 01:47:56;;;;;;;12.45;10.07;;;19.40;99.30;;;;;;5115604;27;20466;-45
2022/09/07 01:50:25;;;;;;;16.02;10.57;;;19.40;99.10;;;;;;5134727;27;20470;-49
2022/09/07 01:52:54;;;;;;;14.30;10.50;;;19.40;99.20;;;;;;5143433;27;20042;-46
2022/09/07 01:55:23;;;;;;;15.07;10.48;;;19.50;99.30;;;;;;5123357;27;20118;-48
2022/09/07 01:57:52;;;;;;;13.73;10.68;;;19.40;99.50;;;;;;5129596;27;20039;-51
2022/09/07 02:00:20;;;;;;;11.77;8.50;;;19.40;99.60;;;;;;5111412;27;20529;-48
2022/09/07 02:02:48;;;;;;;12.35;8.65;;;19.40;99.50;;;;;;5148906;27;20055;-50
2022/09/07 02:05:17;;;;;;;10.27;8.85;;;19.30;99.80;;;;;;5122400;27;20085;-49
2022/09/07 02:07:45;;;;;;;10.65;7.95;;;19.30;99.90;;;;;;5132503;27;20042;-48
2022/09/07 02:10:14;;;;;;;12.77;8.40;;;19.20;99.90;;;;;;5134794;27;20086;-54
2022/09/07 02:12:42;;;;;;;10.48;8.32;;;19.20;99.90;;;;;;5134037;27;20071;-52
2022/09/07 02:15:10;;;;;;;14.13;7.78;;;19.10;99.90;;;;;;5134197;27;20434;-52
2022/09/07 02:17:39;;;;;;;8.55;7.65;;;19.10;99.90;;;;;;5128548;27;20419;-58
2022/09/07 02:20:08;;;;;;;11.18;7.93;;;19.00;99.90;;;;;;5128399;27;20053;-58
2022/09/07 02:22:37;;;;;;;7.97;6.93;;;19.00;99.90;;;;;;5125017;27;20089;-42
2022/09/07 02:25:05;;;;;;;8.43;7.32;;;19.00;99.90;;;;;;5137725;27;20047;-58
2022/09/07 02:27:35;;;;;;;8.40;7.18;;;19.00;99.90;;;;;;5144902;27;20099;-57
2022/09/07 02:30:02;;;;;;;9.40;7.95;;;19.00;99.90;;;;;;5154022;27;20098;-36
2022/09/07 02:32:28;;;;;;;10.77;8.77;;;18.90;99.90;;;;;;5146833;27;20085;-54
2022/09/07 02:34:56;;;;;;;9.07;6.88;;;18.90;99.90;;;;;;5130864;27;20046;-55
2022/09/07 02:37:23;;;;;;;8.48;7.63;;;18.90;99.90;;;;;;5114552;27;20505;-52
2022/09/07 02:39:50;;;;;;;9.38;7.80;;;18.90;99.90;;;;;;5112303;28;20470;-54
2022/09/07 02:42:17;;;;;;;13.80;9.00;;;18.90;99.90;;;;;;5127930;27;20126;-49
2022/09/07 02:44:45;;;;;;;11.50;7.25;;;18.90;99.90;;;;;;5138469;27;20137;-46
2022/09/07 02:47:24;;;;;;;8.90;7.35;;;18.80;99.90;;;;;;5126440;27;20117;-50
2022/09/07 02:50:01;;;;;;;10.95;7.95;;;18.80;99.90;;;;;;5128239;27;20092;-46
2022/09/07 02:52:31;;;;;;;9.63;8.57;;;18.80;99.90;;;;;;5147129;27;20472;-45
2022/09/07 02:55:03;;;;;;;9.25;7.28;;;18.80;99.90;;;;;;5116081;27;20082;-49
2022/09/07 02:57:36;;;;;;;11.27;6.85;;;18.80;99.90;;;;;;5127585;27;20463;-41
2022/09/07 03:00:06;;;;;;;9.23;7.72;;;18.80;99.90;;;;;;5130990;27;20073;-59
2022/09/07 03:02:38;;;;;;;11.75;8.55;;;18.80;99.90;;;;;;5134408;27;20055;-58
2022/09/07 03:05:10;;;;;;;9.02;7.45;;;18.80;99.90;;;;;;5127086;27;20082;-56
2022/09/07 03:07:38;;;;;;;;;;;18.70;99.90;;;;;;5145042;27;20359;-55
2022/09/07 03:10:05;;;;;;;7.40;6.60;;;18.70;99.90;;;;;;5140147;27;20022;-55
2022/09/07 03:12:39;;;;;;;9.30;6.40;;;18.70;99.90;;;;;;5127309;27;20057;-57
2022/09/07 03:15:07;;;;;;;11.02;8.02;;;18.80;99.90;;;;;;5133309;27;20071;-57
2022/09/07 03:17:34;;;;;;;8.27;6.55;;;18.70;99.90;;;;;;5111957;27;20118;-56
2022/09/07 03:20:00;;;;;;;6.18;5.57;;;18.70;99.90;;;;;;5145382;27;20043;-54
2022/09/07 03:22:32;;;;;;;8.85;6.15;;;18.70;99.90;;;;;;5139786;27;20063;-55
2022/09/07 03:24:59;;;;;;;11.07;8.73;;;18.80;99.90;;;;;;5135481;27;20047;-54
2022/09/07 03:27:26;;;;;;;10.25;8.07;;;18.80;99.90;;;;;;5132684;28;20074;-56
2022/09/07 03:29:53;;;;;;;9.43;6.90;;;18.80;99.90;;;;;;5110484;28;20051;-50
2022/09/07 03:32:19;;;;;;;8.82;7.43;;;18.80;99.90;;;;;;5120507;27;20122;-56
2022/09/07 03:34:47;;;;;;;10.05;8.23;;;18.80;99.90;;;;;;5124406;27;20074;-55
2022/09/07 03:37:14;;;;;;;8.40;6.60;;;18.80;99.90;;;;;;5117169;27;20039;-52
2022/09/07 03:39:42;;;;;;;8.85;7.35;;;18.80;99.90;;;;;;5133502;28;20043;-50
2022/09/07 03:42:08;;;;;;;9.43;7.40;;;18.80;99.90;;;;;;5129365;27;20125;-50
2022/09/07 03:44:35;;;;;;;8.90;7.82;;;18.80;99.90;;;;;;5135798;27;20046;-51
2022/09/07 03:47:02;;;;;;;8.63;7.65;;;18.80;99.90;;;;;;5147230;27;20060;-52
2022/09/07 03:49:29;;;;;;;10.18;8.35;;;18.80;99.90;;;;;;5136026;27;20056;-45
2022/09/07 03:51:55;;;;;;;9.68;8.00;;;18.80;99.90;;;;;;5105977;28;20130;-46
2022/09/07 03:54:22;;;;;;;10.68;8.50;;;18.80;99.90;;;;;;5130455;28;20051;-44
2022/09/07 03:56:50;;;;;;;12.57;8.23;;;18.80;99.90;;;;;;5123348;27;20119;-46
2022/09/07 03:59:17;;;;;;;13.95;10.07;;;18.80;99.90;;;;;;5133690;27;20042;-46
2022/09/07 04:01:44;;;;;;;13.30;9.38;;;18.80;99.90;;;;;;5132726;27;20155;-45
2022/09/07 04:04:11;;;;;;;12.10;9.88;;;18.70;99.90;;;;;;5153619;27;20077;-43
2022/09/07 04:06:37;;;;;;;12.93;10.20;;;18.70;99.90;;;;;;5152577;27;20106;-45
2022/09/07 04:09:05;;;;;;;12.10;10.85;;;18.70;99.90;;;;;;5111652;27;20082;-44
2022/09/07 04:11:32;;;;;;;15.88;10.90;;;18.60;99.90;;;;;;5128230;27;20077;-44
2022/09/07 04:14:00;;;;;;;14.25;12.05;;;18.60;99.90;;;;;;5126390;27;20050;-45
2022/09/07 04:16:27;;;;;;;13.10;10.35;;;18.60;99.90;;;;;;5125005;27;20062;-41
2022/09/07 04:18:54;;;;;;;16.13;13.18;;;18.60;99.90;;;;;;5118670;27;20126;-41
2022/09/07 04:21:21;;;;;;;13.60;12.30;;;18.50;99.90;;;;;;5126447;27;20050;-43
2022/09/07 04:23:48;;;;;;;16.88;14.00;;;18.50;99.90;;;;;;5139576;27;20117;-47
2022/09/07 04:26:15;;;;;;;14.93;11.75;;;18.50;99.90;;;;;;5122238;27;20081;-44
2022/09/07 04:28:42;;;;;;;15.90;14.18;;;18.40;99.90;;;;;;5135180;27;20035;-44
2022/09/07 04:31:10;;;;;;;15.50;11.68;;;18.40;99.90;;;;;;5130291;27;20050;-43
2022/09/07 04:33:37;;;;;;;16.83;15.13;;;18.40;99.90;;;;;;5125631;27;20049;-42
2022/09/07 04:36:04;;;;;;;18.45;15.52;;;18.40;99.90;;;;;;5137256;27;20039;-44
2022/09/07 04:38:31;;;;;;;15.30;11.82;;;18.30;99.90;;;;;;5153498;27;20458;-45
2022/09/07 04:41:01;;;;;;;14.55;11.23;;;18.30;99.90;;;;;;5151406;27;20537;-45
2022/09/07 04:43:28;;;;;;;17.67;15.02;;;18.30;99.90;;;;;;5118697;27;20123;-42
2022/09/07 04:45:54;;;;;;;17.67;10.70;;;18.30;99.90;;;;;;5146237;27;20541;-41
2022/09/07 04:48:22;;;;;;;11.85;10.18;;;18.30;99.90;;;;;;5120918;27;20530;-42
2022/09/07 04:50:50;;;;;;;17.05;14.40;;;18.40;99.90;;;;;;5141499;27;20632;-42
2022/09/07 04:53:17;;;;;;;15.20;12.10;;;18.40;99.90;;;;;;5133534;27;20053;-43
2022/09/07 04:55:44;;;;;;;18.05;14.65;;;18.40;99.90;;;;;;5130596;27;20043;-44
2022/09/07 04:58:11;;;;;;;18.85;15.32;;;18.40;99.90;;;;;;5133283;27;20039;-45
2022/09/07 05:00:38;;;;;;;13.55;11.23;;;18.40;99.90;;;;;;5134688;27;20041;-43
2022/09/07 05:03:05;;;;;;;13.65;12.25;;;18.40;99.90;;;;;;5141444;27;20050;-46
2022/09/07 05:05:36;;;;;;;13.77;11.82;;;18.40;99.90;;;;;;5137277;27;20117;-44
2022/09/07 05:08:03;;;;;;;20.27;14.63;;;18.40;99.90;;;;;;5127057;27;20038;-42
2022/09/07 05:10:29;;;;;;;14.77;12.93;;;18.40;99.90;;;;;;5149778;27;20379;-43
2022/09/07 05:12:56;;;;;;;15.80;13.32;;;18.50;99.90;;;;;;5143459;27;20125;-45
2022/09/07 05:15:23;;;;;;;15.32;13.70;;;18.40;99.90;;;;;;5112914;27;20077;-42
2022/09/07 05:17:50;;;;;;;17.10;15.30;;;18.40;99.90;;;;;;5144260;27;20038;-41
2022/09/07 05:20:18;;;;;;;15.45;13.88;;;18.40;99.90;;;;;;5155943;27;20122;-44
2022/09/07 05:22:46;;;;;;;15.38;13.13;;;18.30;99.90;;;;;;5139300;27;20369;-42
2022/09/07 05:25:13;;;;;;;11.60;9.48;;;18.30;99.90;;;;;;5131282;27;20126;-37
2022/09/07 05:27:41;;;;;;;14.18;12.60;;;18.40;99.90;;;;;;5135015;27;20089;-42
2022/09/07 05:30:09;;;;;;;14.25;11.48;;;18.30;99.90;;;;;;5139688;27;20047;-44
2022/09/07 05:32:36;;;;;;;11.60;9.43;;;18.40;99.90;;;;;;5127605;27;20047;-45
2022/09/07 05:35:02;;;;;;;18.58;12.73;;;18.40;99.90;;;;;;5139997;27;20078;-43
2022/09/07 05:37:29;;;;;;;15.40;13.45;;;18.40;99.90;;;;;;5133264;27;20092;-45
2022/09/07 05:39:57;;;;;;;13.70;10.98;;;18.40;99.90;;;;;;5133112;27;20545;-44
2022/09/07 05:42:24;;;;;;;14.70;12.07;;;18.40;99.90;;;;;;5112544;27;20574;-46
2022/09/07 05:44:51;;;;;;;19.58;16.60;;;18.40;99.90;;;;;;5133659;27;20078;-45
2022/09/07 05:47:18;;;;;;;16.15;14.55;;;18.40;99.90;;;;;;5139426;27;20061;-46
2022/09/07 05:49:45;;;;;;;16.05;14.15;;;18.40;99.90;;;;;;5139356;27;20129;-48
2022/09/07 05:52:12;;;;;;;19.23;14.68;;;18.40;99.90;;;;;;5115320;27;20035;-49
2022/09/07 05:54:38;;;;;;;18.23;16.38;;;18.40;99.90;;;;;;5137018;27;20039;-51
2022/09/07 05:57:07;;;;;;;19.23;16.17;;;18.50;99.90;;;;;;5114988;27;20050;-43
2022/09/07 05:59:33;;;;;;;13.07;11.65;;;18.40;99.90;;;;;;5121894;27;20070;-45
2022/09/07 06:02:00;;;;;;;15.48;12.88;;;18.50;99.90;;;;;;5138694;27;20049;-49
2022/09/07 06:04:27;;;;;;;16.48;14.32;;;18.40;99.90;;;;;;5133832;27;20131;-50
2022/09/07 06:06:54;;;;;;;16.10;14.02;;;18.50;99.90;;;;;;5116478;27;20062;-49
2022/09/07 06:09:21;;;;;;;17.40;15.38;;;18.50;99.90;;;;;;5115526;27;20047;-47
2022/09/07 06:11:47;;;;;;;14.90;13.38;;;18.50;99.90;;;;;;5116852;27;20362;-50
2022/09/07 06:14:15;;;;;;;17.55;15.75;;;18.50;99.90;;;;;;5131419;27;20047;-46
2022/09/07 06:16:42;;;;;;;19.35;17.17;;;18.50;99.90;;;;;;5112812;28;20126;-49
2022/09/07 06:19:09;;;;;;;16.13;14.00;;;18.50;99.90;;;;;;5115348;27;20131;-49
2022/09/07 06:21:36;;;;;;;21.15;16.33;;;18.50;99.90;;;;;;5116429;27;20130;-46
2022/09/07 06:24:03;;;;;;;19.88;17.05;;;18.50;99.90;;;;;;5134408;27;20122;-47
2022/09/07 06:26:30;;;;;;;23.48;20.20;;;18.50;99.90;;;;;;5134954;27;20043;-49
2022/09/07 06:28:57;;;;;;;26.55;20.65;;;18.50;99.90;;;;;;5134521;27;20130;-49
2022/09/07 06:31:25;;;;;;;29.80;24.67;;;18.50;99.90;;;;;;5114333;27;20047;-47
2022/09/07 06:33:52;;;;;;;22.27;19.17;;;18.50;99.90;;;;;;5114264;27;20497;-46
2022/09/07 06:36:19;;;;;;;23.30;18.75;;;18.50;99.90;;;;;;5116114;27;20071;-50
2022/09/07 06:38:46;;;;;;;29.33;23.27;;;18.60;99.90;;;;;;5114890;27;20039;-49
2022/09/07 06:41:14;;;;;;;28.38;22.45;;;18.60;99.90;;;;;;5116171;27;20463;-47
2022/09/07 06:43:40;;;;;;;30.35;24.88;;;18.60;99.90;;;;;;5115902;27;20074;-46
2022/09/07 06:46:07;;;;;;;20.00;15.43;;;18.60;99.90;;;;;;5134080;27;20126;-48
2022/09/07 06:48:36;;;;;;;25.52;21.88;;;18.70;99.90;;;;;;5134200;27;20401;-47
2022/09/07 06:51:04;;;;;;;24.63;20.88;;;18.70;99.90;;;;;;5114116;27;20057;-48
2022/09/07 06:53:31;;;;;;;21.27;19.13;;;18.70;99.90;;;;;;5115258;27;20489;-46
2022/09/07 06:55:58;;;;;;;25.77;23.08;;;18.80;99.90;;;;;;5134132;27;20081;-49
2022/09/07 06:58:25;;;;;;;26.52;23.63;;;18.80;99.90;;;;;;5134084;27;20126;-48
2022/09/07 07:00:52;;;;;;;27.55;24.75;;;18.80;99.90;;;;;;5133781;27;20444;-47
2022/09/07 07:03:19;;;;;;;29.55;25.50;;;18.80;99.90;;;;;;5115320;27;20552;-47
2022/09/07 07:05:52;;;;;;;26.58;23.73;;;18.90;99.90;;;;;;5133881;27;20080;-48
2022/09/07 07:08:19;;;;;;;31.08;26.10;;;18.90;99.90;;;;;;5133663;27;20039;-48
2022/09/07 07:10:46;;;;;;;31.60;25.90;;;18.90;99.90;;;;;;5132623;27;20124;-49
2022/09/07 07:13:12;;;;;;;32.28;27.45;;;18.90;99.90;;;;;;5133919;27;20039;-46
2022/09/07 07:15:39;;;;;;;32.92;29.40;;;18.90;99.90;;;;;;5118357;27;20112;-48
2022/09/07 07:18:06;;;;;;;32.15;28.27;;;19.00;99.90;;;;;;5113789;28;20043;-45
2022/09/07 07:20:34;;;;;;;27.80;24.80;;;19.00;99.90;;;;;;5132979;27;20057;-48
2022/09/07 07:23:02;;;;;;;30.33;26.95;;;19.00;99.90;;;;;;5133554;28;20470;-47
2022/09/07 07:25:29;;;;;;;29.05;26.02;;;19.00;99.90;;;;;;5133562;28;20118;-48
2022/09/07 07:27:56;;;;;;;29.92;23.92;;;19.10;99.90;;;;;;5132641;28;20474;-46
2022/09/07 07:30:23;;;;;;;28.05;25.23;;;19.10;99.90;;;;;;5133644;28;20130;-46
2022/09/07 07:32:49;;;;;;;28.25;24.25;;;19.10;99.90;;;;;;5133564;28;20094;-48
2022/09/07 07:35:16;;;;;;;32.38;26.30;;;19.10;99.90;;;;;;5133548;28;20510;-50
2022/09/07 07:37:43;;;;;;;31.25;27.85;;;19.20;99.90;;;;;;5115097;28;20046;-49
2022/09/07 07:40:14;;;;;;;23.48;20.42;;;19.20;99.90;;;;;;5113947;28;20095;-46
2022/09/07 07:42:41;;;;;;;37.55;31.10;;;19.30;99.90;;;;;;5134049;28;20047;-50
2022/09/07 07:45:09;;;;;;;31.75;26.92;;;19.30;99.90;;;;;;5133347;28;20055;-45
2022/09/07 07:47:35;;;;;;;28.45;25.33;;;19.40;99.90;;;;;;5130816;28;20047;-44
2022/09/07 07:50:02;;;;;;;30.17;26.58;;;19.40;99.90;;;;;;5134466;27;20101;-49
2022/09/07 07:52:32;;;;;;;31.40;24.42;;;19.40;99.90;;;;;;5137520;27;20534;-47
2022/09/07 07:54:59;;;;;;;30.17;26.05;;;19.40;99.90;;;;;;5137575;27;20054;-48
2022/09/07 07:57:28;;;;;;;29.08;23.60;;;19.40;99.90;;;;;;5119488;27;20051;-49
2022/09/07 07:59:54;;;;;;;21.95;19.27;;;19.50;99.90;;;;;;5136372;27;20658;-46
2022/09/07 08:02:21;;;;;;;24.92;22.23;;;19.50;99.90;;;;;;5137660;27;20053;-44
2022/09/07 08:04:48;;;;;;;25.10;20.17;;;19.50;99.90;;;;;;5137347;27;20104;-49
2022/09/07 08:07:15;;;;;;;22.63;18.35;;;19.50;99.90;;;;;;5137448;27;20454;-49
2022/09/07 08:09:43;;;;;;;24.02;21.17;;;19.60;99.90;;;;;;5137315;27;20126;-43
2022/09/07 08:12:11;;;;;;;23.85;19.70;;;19.70;99.90;;;;;;5137165;27;20122;-46
2022/09/07 08:14:39;;;;;;;22.98;20.58;;;19.80;99.90;;;;;;5112314;28;20352;-47
2022/09/07 08:17:06;;;;;;;20.92;18.88;;;20.00;99.90;;;;;;5116474;28;20047;-45
2022/09/07 08:19:33;;;;;;;20.60;18.52;;;20.20;99.90;;;;;;5116941;27;20075;-48
2022/09/07 08:21:59;;;;;;;20.67;18.48;;;20.30;99.90;;;;;;5118961;27;20126;-47
2022/09/07 08:24:26;;;;;;;19.23;16.98;;;20.40;99.90;;;;;;5137221;27;20082;-45
2022/09/07 08:26:53;;;;;;;17.58;15.77;;;20.50;99.90;;;;;;5136836;27;20129;-46
2022/09/07 08:29:20;;;;;;;16.38;14.68;;;20.50;99.90;;;;;;5136915;27;20071;-45
2022/09/07 08:31:48;;;;;;;18.83;15.30;;;20.50;99.90;;;;;;5136805;27;20043;-46
2022/09/07 08:34:14;;;;;;;16.08;14.25;;;20.50;99.90;;;;;;5118438;27;20047;-46
2022/09/07 08:36:41;;;;;;;17.38;15.25;;;20.40;99.90;;;;;;5117733;27;20078;-45
2022/09/07 08:39:08;;;;;;;17.35;15.18;;;20.50;99.90;;;;;;5135706;27;20382;-47
2022/09/07 08:41:52;;;;;;;17.38;14.55;;;20.50;99.90;;;;;;5136533;27;20082;-47
2022/09/07 08:44:21;;;;;;;17.83;15.02;;;20.60;99.90;;;;;;5136396;27;20047;-44
2022/09/07 08:46:51;;;;;;;16.65;14.68;;;20.60;99.90;;;;;;5136427;27;20045;-45
2022/09/07 08:49:21;;;;;;;16.92;13.57;;;20.70;99.90;;;;;;5136694;27;20127;-46
2022/09/07 08:51:49;;;;;;;19.45;13.25;;;20.70;99.90;;;;;;5136523;27;20050;-45
2022/09/07 08:54:16;;;;;;;16.20;13.98;;;20.80;99.90;;;;;;5136361;27;20108;-48
2022/09/07 08:56:44;;;;;;;14.30;12.05;;;20.80;99.90;;;;;;5134052;27;20486;-47
2022/09/07 08:59:15;;;;;;;16.50;12.93;;;20.80;99.90;;;;;;5117705;27;20051;-42
2022/09/07 09:01:42;;;;;;;15.30;12.38;;;20.80;99.90;;;;;;5116791;27;20081;-42
2022/09/07 09:04:13;;;;;;;15.40;12.95;;;20.90;99.90;;;;;;5118100;27;20050;-51
2022/09/07 09:06:43;;;;;;;13.20;11.82;;;20.90;99.90;;;;;;5118235;27;20118;-48
2022/09/07 09:09:14;;;;;;;12.82;11.52;;;21.00;99.90;;;;;;5136075;27;20043;-46
2022/09/07 09:11:49;;;;;;;13.27;11.23;;;21.00;99.90;;;;;;5136175;27;20390;-42
2022/09/07 09:14:21;;;;;;;12.13;9.98;;;21.00;99.90;;;;;;5113979;28;20079;-44
2022/09/07 09:16:51;;;;;;;11.88;9.82;;;21.00;99.90;;;;;;5115339;28;20496;-44
2022/09/07 09:19:40;;;;;;;12.63;11.32;;;21.10;99.90;;;;;;5114291;27;20449;-46
2022/09/07 09:22:12;;;;;;;13.63;9.90;;;21.10;99.90;;;;;;5135856;27;20090;-44
2022/09/07 09:24:40;;;;;;;13.23;10.02;;;21.10;99.90;;;;;;5117523;27;20049;-44
2022/09/07 09:27:09;;;;;;;10.82;9.73;;;21.20;99.90;;;;;;5135787;27;20043;-44
2022/09/07 09:29:36;;;;;;;12.30;10.00;;;21.30;99.90;;;;;;5117438;27;20181;-44
2022/09/07 09:32:30;;;;;;;9.95;8.43;;;21.30;99.90;;;;;;5113851;28;20131;-45
2022/09/07 09:35:02;;;;;;;12.57;9.43;;;21.40;99.90;;;;;;5115231;28;20040;-44
2022/09/07 09:37:36;;;;;;;9.55;8.52;;;21.50;99.90;;;;;;5122475;27;20110;-46
2022/09/07 09:40:03;;;;;;;11.63;9.23;;;21.50;99.90;;;;;;5116301;27;20039;-46
2022/09/07 09:42:31;;;;;;;9.38;7.85;;;21.60;99.90;;;;;;5117302;27;20043;-45
2022/09/07 09:45:02;;;;;;;12.85;8.70;;;21.50;99.90;;;;;;5117285;27;20127;-44
2022/09/07 09:47:31;;;;;;;10.85;7.53;;;21.50;99.90;;;;;;5135324;27;20378;-42
2022/09/07 09:49:59;;;;;;;11.25;8.48;;;21.60;99.90;;;;;;5135138;27;20043;-45
2022/09/07 09:52:27;;;;;;;10.75;8.55;;;21.70;99.90;;;;;;5135450;27;20054;-45
2022/09/07 09:54:55;;;;;;;10.35;7.38;;;21.80;99.90;;;;;;5116835;27;20482;-42
2022/09/07 09:57:46;;;;;;;10.70;6.32;;;21.90;99.90;;;;;;5134328;27;20050;-45
2022/09/07 10:00:15;;;;;;;11.98;7.75;;;22.00;99.90;;;;;;5116560;27;20043;-43
2022/09/07 10:02:42;;;;;;;10.52;7.68;;;22.10;99.70;;;;;;5116706;27;20130;-42
2022/09/07 10:05:26;;;;;;;12.30;7.82;;;22.20;99.60;;;;;;5135027;27;20126;-46
2022/09/07 10:07:55;;;;;;;10.25;7.07;;;22.40;99.30;;;;;;5117068;27;20134;-46
2022/09/07 10:10:21;;;;;;;10.32;6.72;;;22.50;99.30;;;;;;5134784;27;20390;-47
2022/09/07 10:12:51;;;;;;;8.35;6.13;;;22.60;98.90;;;;;;5134643;27;20478;-44
2022/09/07 10:15:25;;;;;;;7.55;5.82;;;22.80;98.60;;;;;;5122355;27;20082;-44
2022/09/07 10:17:52;;;;;;;10.40;5.88;;;22.80;98.20;;;;;;5124145;27;20043;-44
2022/09/07 10:20:34;;;;;;;7.57;6.07;;;22.80;98.20;;;;;;5134582;27;20039;-46
2022/09/07 10:23:03;;;;;;;9.02;6.35;;;22.80;97.70;;;;;;5116442;27;20043;-45
2022/09/07 10:25:32;;;;;;;10.48;6.30;;;22.70;98.00;;;;;;5131963;27;20047;-45
2022/09/07 10:28:06;;;;;;;7.88;5.30;;;22.70;98.10;;;;;;5115852;27;20126;-46
2022/09/07 10:30:37;;;;;;;7.80;5.97;;;22.90;97.70;;;;;;5134591;27;20053;-46
2022/09/07 10:33:07;;;;;;;9.38;5.72;;;23.00;97.30;;;;;;5134500;27;20031;-48
2022/09/07 10:35:35;;;;;;;8.20;6.00;;;23.00;97.40;;;;;;5134375;27;20466;-46
2022/09/07 10:38:10;;;;;;;9.30;6.53;;;23.00;97.10;;;;;;5116191;27;20074;-49
2022/09/07 10:40:40;;;;;;;7.53;5.13;;;23.00;97.20;;;;;;5134573;27;20129;-49
2022/09/07 10:43:16;;;;;;;7.53;5.75;;;23.10;96.90;;;;;;5116300;27;20059;-45
2022/09/07 10:45:51;;;;;;;10.18;7.07;;;23.30;96.80;;;;;;5134169;27;20074;-49
2022/09/07 10:48:21;;;;;;;11.13;6.47;;;23.40;96.30;;;;;;5116121;27;20047;-46
2022/09/07 10:50:50;;;;;;;8.00;5.47;;;23.70;96.20;;;;;;5134143;27;20126;-45
2022/09/07 10:53:35;;;;;;;9.73;6.20;;;23.70;95.60;;;;;;5134174;27;20103;-48
2022/09/07 10:56:05;;;;;;;7.32;5.95;;;23.80;95.60;;;;;;5134203;27;20128;-49
2022/09/07 10:58:37;;;;;;;11.70;7.35;;;23.80;95.60;;;;;;5133845;27;20453;-43
2022/09/07 11:01:08;;;;;;;14.00;6.82;;;23.80;95.40;;;;;;5115968;27;20367;-48
2022/09/07 11:03:48;;;;;;;8.57;6.05;;;23.90;94.90;;;;;;5114194;27;20051;-48
2022/09/07 11:06:17;;;;;;;8.68;5.72;;;24.00;94.40;;;;;;5134086;27;20122;-44
2022/09/07 11:08:55;;;;;;;10.93;7.28;;;24.20;94.50;;;;;;5115595;27;20133;-47
2022/09/07 11:11:25;;;;;;;12.75;7.10;;;24.40;93.70;;;;;;5132874;27;20079;-46
2022/09/07 11:13:54;;;;;;;8.77;5.85;;;24.60;93.50;;;;;;5133411;27;20126;-46
2022/09/07 11:16:22;;;;;;;10.98;6.05;;;24.70;92.70;;;;;;5113461;28;20580;-50
2022/09/07 11:18:52;;;;;;;11.63;6.03;;;24.70;92.90;;;;;;5113236;28;20055;-47
2022/09/07 11:21:20;;;;;;;8.18;5.78;;;24.80;92.90;;;;;;5113425;28;20083;-49
2022/09/07 11:23:50;;;;;;;9.77;6.18;;;24.90;92.60;;;;;;5113216;28;20535;-44
2022/09/07 11:26:19;;;;;;;9.20;6.15;;;25.00;92.40;;;;;;5111568;28;20090;-45
2022/09/07 11:28:47;;;;;;;9.70;6.32;;;25.20;92.10;;;;;;5107867;28;20126;-42
2022/09/07 11:31:18;;;;;;;12.25;5.70;;;25.30;91.70;;;;;;5131964;28;20138;-47
2022/09/07 11:33:59;;;;;;;9.93;6.45;;;25.50;91.50;;;;;;5125366;28;20458;-47
2022/09/07 11:36:27;;;;;;;8.82;6.32;;;25.70;91.10;;;;;;5130269;28;20130;-46
2022/09/07 11:38:59;;;;;;;9.32;6.30;;;25.80;90.30;;;;;;5115313;28;20130;-49
2022/09/07 11:41:27;;;;;;;10.68;7.03;;;25.90;90.00;;;;;;5130308;28;20130;-47
2022/09/07 11:44:00;;;;;;;11.45;7.13;;;25.80;90.20;;;;;;5132410;28;20043;-46
2022/09/07 11:46:31;;;;;;;9.15;6.05;;;25.70;90.50;;;;;;5133506;28;20039;-46
2022/09/07 11:48:58;;;;;;;;;;;25.60;90.60;;;;;;5134069;28;20046;-49
2022/09/07 11:51:32;;;;;;;11.43;6.22;;;25.50;90.90;;;;;;5106944;28;20418;-48
2022/09/07 11:54:14;;;;;;;8.75;6.13;;;25.50;90.70;;;;;;5133645;28;20516;-46
2022/09/07 11:56:41;;;;;;;9.73;6.20;;;25.50;90.70;;;;;;5133624;28;20442;-47
2022/09/07 11:59:24;;;;;;;8.55;5.38;;;25.60;90.50;;;;;;5133334;28;20120;-45
2022/09/07 12:01:58;;;;;;;6.93;4.93;;;25.60;90.30;;;;;;5133299;28;20130;-46
2022/09/07 12:04:33;;;;;;;7.07;4.55;;;25.60;90.40;;;;;;5133253;28;20501;-46
2022/09/07 12:07:27;;;;;;;5.07;4.22;;;25.60;90.10;;;;;;5133454;28;20085;-48
2022/09/07 12:10:06;;;;;;;6.88;4.15;;;25.70;89.90;;;;;;5113000;28;20075;-40
2022/09/07 12:12:55;;;;;;;5.60;3.50;;;25.90;89.60;;;;;;5112733;28;20051;-45
2022/09/07 12:15:26;;;;;;;9.05;5.30;;;26.10;88.50;;;;;;5112703;28;20075;-47
2022/09/07 12:17:59;;;;;;;;;;;26.30;87.70;;;;;;5113409;28;20081;-42
2022/09/07 12:20:27;;;;;;;9.05;4.53;;;26.30;87.80;;;;;;5130190;28;20278;-48
2022/09/07 12:22:58;;;;;;;7.13;4.03;;;26.20;87.90;;;;;;5133142;28;20547;-44
2022/09/07 12:25:27;;;;;;;7.72;4.07;;;26.20;87.00;;;;;;5113981;28;20054;-45
2022/09/07 12:27:54;;;;;;;6.53;4.22;;;26.20;87.30;;;;;;5125265;27;20104;-40
2022/09/07 12:30:52;;;;;;;6.07;4.03;;;26.10;87.10;;;;;;5124866;27;20057;-38
2022/09/07 12:33:21;;;;;;;5.90;4.15;;;26.20;87.30;;;;;;5118308;28;20389;-45
2022/09/07 12:35:48;;;;;;;7.65;4.60;;;26.20;88.00;;;;;;5129408;27;20066;-44
2022/09/07 12:39:00;;;;;;;10.23;4.70;;;26.20;87.40;;;;;;5111628;27;20483;-43
2022/09/07 12:41:42;;;;;;;5.22;3.40;;;26.30;86.90;;;;;;5132571;27;20435;-45
2022/09/07 12:44:15;;;;;;;5.45;3.20;;;26.30;86.20;;;;;;5117540;27;20055;-48
2022/09/07 12:46:53;;;;;;;4.22;3.20;;;26.30;85.80;;;;;;5137771;27;20090;-42